Time;durP1;ratioP1;P1;durP2;ratioP2;P2;SDS_P1;SDS_P2;PMS_P1;PMS_P2;Temp;Humidity;BMP_temperature;BMP_pressure;BME280_temperature;BME280_humidity;BME280_pressure;Samples;Min_cycle;Max_cycle;Signal;HPM_P1;HPM_P2
2023/11/05 00:01:46;;;;;;;12.67;1.40;;;9.10;99.90;;;;;;4913207;28;20207;-64
2023/11/05 00:04:12;;;;;;;5.90;1.47;;;9.10;99.90;;;;;;4912639;28;20242;-64
2023/11/05 00:06:37;;;;;;;8.30;1.90;;;9.10;99.90;;;;;;4913246;28;20614;-64
2023/11/05 00:09:03;;;;;;;9.07;1.40;;;9.10;99.90;;;;;;4913387;28;20315;-64
2023/11/05 00:11:29;;;;;;;4.00;1.07;;;9.10;99.90;;;;;;4906203;28;20604;-64
2023/11/05 00:13:54;;;;;;;8.43;1.03;;;9.10;99.90;;;;;;4911880;28;20184;-64
2023/11/05 00:16:20;;;;;;;4.93;1.90;;;9.20;99.90;;;;;;4913048;28;20671;-64
2023/11/05 00:18:45;;;;;;;4.50;1.60;;;9.10;99.90;;;;;;4911729;28;20211;-63
2023/11/05 00:21:11;;;;;;;7.87;1.43;;;9.10;99.90;;;;;;4906388;28;20192;-64
2023/11/05 00:23:37;;;;;;;6.33;1.37;;;9.10;99.90;;;;;;4904642;28;20195;-64
2023/11/05 00:26:02;;;;;;;9.17;1.60;;;9.10;99.90;;;;;;4913005;28;20246;-64
2023/11/05 00:28:28;;;;;;;6.00;1.00;;;9.10;99.90;;;;;;4913450;28;20279;-64
2023/11/05 00:30:53;;;;;;;12.27;1.30;;;9.10;99.90;;;;;;4912800;28;20214;-63
2023/11/05 00:33:19;;;;;;;6.70;1.30;;;9.10;99.90;;;;;;4912696;28;20275;-64
2023/11/05 00:35:45;;;;;;;6.07;1.27;;;9.20;99.90;;;;;;4912447;28;20726;-64
2023/11/05 00:38:11;;;;;;;3.37;1.30;;;9.20;99.90;;;;;;4912952;28;20184;-64
2023/11/05 00:40:37;;;;;;;6.83;1.33;;;9.20;99.90;;;;;;4912305;28;20259;-64
2023/11/05 00:43:04;;;;;;;8.73;1.23;;;9.20;99.90;;;;;;4913103;28;20187;-64
2023/11/05 00:45:29;;;;;;;7.70;1.40;;;9.30;99.90;;;;;;4912139;28;20222;-63
2023/11/05 00:47:55;;;;;;;4.00;0.97;;;9.20;99.90;;;;;;4912633;28;20188;-64
2023/11/05 00:50:21;;;;;;;2.33;1.03;;;9.30;99.90;;;;;;4912232;28;20301;-64
2023/11/05 00:52:47;;;;;;;4.70;1.23;;;9.30;99.90;;;;;;4912568;28;20331;-64
2023/11/05 00:55:14;;;;;;;10.97;1.27;;;9.20;99.90;;;;;;4904237;28;20184;-64
2023/11/05 00:57:40;;;;;;;5.50;1.40;;;9.20;99.90;;;;;;4912524;28;20192;-65
2023/11/05 01:00:08;;;;;;;5.30;1.40;;;9.20;99.90;;;;;;4912684;28;20308;-63
2023/11/05 01:02:37;;;;;;;4.77;1.53;;;9.20;99.90;;;;;;4912295;28;20176;-64
2023/11/05 01:05:05;;;;;;;6.30;1.33;;;9.20;99.90;;;;;;4904227;28;20208;-64
2023/11/05 01:07:32;;;;;;;6.87;1.13;;;9.20;99.90;;;;;;4912195;28;20611;-64
2023/11/05 01:09:57;;;;;;;5.67;1.40;;;9.30;99.90;;;;;;4912202;28;20714;-64
2023/11/05 01:12:23;;;;;;;7.63;1.20;;;9.30;99.90;;;;;;4912556;28;20188;-64
2023/11/05 01:14:49;;;;;;;9.90;1.43;;;9.30;99.90;;;;;;4911884;28;20682;-64
2023/11/05 01:17:16;;;;;;;4.07;1.33;;;9.30;99.90;;;;;;4911363;28;20180;-64
2023/11/05 01:19:41;;;;;;;4.33;1.13;;;9.20;99.90;;;;;;4912215;28;20208;-64
2023/11/05 01:22:08;;;;;;;7.47;1.37;;;9.30;99.90;;;;;;4912145;28;20203;-63
2023/11/05 01:24:35;;;;;;;5.50;1.60;;;9.30;99.90;;;;;;4911491;28;20207;-63
2023/11/05 01:27:02;;;;;;;6.20;0.93;;;9.30;99.90;;;;;;4908731;28;20172;-64
2023/11/05 01:29:28;;;;;;;8.67;1.67;;;9.20;99.90;;;;;;4907719;28;20208;-64
2023/11/05 01:31:53;;;;;;;10.23;1.33;;;9.20;99.90;;;;;;4912148;28;20205;-64
2023/11/05 01:34:19;;;;;;;6.03;1.20;;;9.20;99.90;;;;;;4906237;28;20686;-64
2023/11/05 01:36:45;;;;;;;11.17;2.00;;;9.20;99.90;;;;;;4909712;28;20192;-63
2023/11/05 01:39:10;;;;;;;5.77;1.30;;;9.20;99.90;;;;;;4911933;28;20215;-64
2023/11/05 01:41:36;;;;;;;9.37;1.10;;;9.30;99.90;;;;;;4912091;28;20627;-63
2023/11/05 01:44:01;;;;;;;7.33;1.30;;;9.30;99.90;;;;;;4911016;28;20194;-63
2023/11/05 01:46:28;;;;;;;5.60;1.10;;;9.30;99.90;;;;;;4911828;28;20176;-64
2023/11/05 01:48:57;;;;;;;6.53;1.70;;;9.40;99.90;;;;;;4911841;28;20196;-64
2023/11/05 01:51:22;;;;;;;3.20;0.90;;;9.30;99.90;;;;;;4911685;28;20180;-64
2023/11/05 01:53:52;;;;;;;5.57;1.20;;;9.30;99.90;;;;;;4911267;28;20692;-64
2023/11/05 01:56:22;;;;;;;6.03;1.50;;;9.30;99.90;;;;;;4902486;28;20187;-65
2023/11/05 01:58:49;;;;;;;5.00;1.00;;;9.30;99.90;;;;;;4911715;28;20203;-63
2023/11/05 02:01:19;;;;;;;7.93;1.27;;;9.30;99.90;;;;;;4911743;28;20203;-64
2023/11/05 02:03:45;;;;;;;4.57;1.07;;;9.20;99.90;;;;;;4911059;28;20279;-64
2023/11/05 02:06:12;;;;;;;4.83;1.30;;;9.30;99.90;;;;;;4907339;28;20283;-64
2023/11/05 02:08:40;;;;;;;3.23;0.90;;;9.30;99.90;;;;;;4908531;28;20188;-64
2023/11/05 02:11:06;;;;;;;3.37;1.10;;;9.20;99.90;;;;;;4911643;28;20296;-63
2023/11/05 02:13:52;;;;;;;5.63;1.00;;;9.30;99.90;;;;;;4910740;28;20275;-63
2023/11/05 02:16:20;;;;;;;3.03;0.83;;;9.30;99.90;;;;;;4903817;28;20568;-64
2023/11/05 02:18:46;;;;;;;9.40;1.20;;;9.30;99.90;;;;;;4902202;28;20592;-64
2023/11/05 02:21:16;;;;;;;4.73;0.80;;;9.30;99.90;;;;;;4911302;28;20215;-63
2023/11/05 02:23:42;;;;;;;5.37;1.07;;;9.30;99.90;;;;;;4910950;28;20222;-64
2023/11/05 02:26:09;;;;;;;4.33;0.73;;;9.30;99.90;;;;;;4911311;28;20262;-64
2023/11/05 02:28:35;;;;;;;3.17;0.67;;;9.30;99.90;;;;;;4910489;28;20187;-64
2023/11/05 02:31:00;;;;;;;4.07;0.50;;;9.30;99.90;;;;;;4903171;28;20195;-64
2023/11/05 02:33:26;;;;;;;5.00;1.10;;;9.20;99.90;;;;;;4910781;28;20220;-64
2023/11/05 02:35:52;;;;;;;2.27;0.60;;;9.20;99.90;;;;;;4910731;28;20187;-64
2023/11/05 02:38:18;;;;;;;2.97;0.80;;;9.30;99.90;;;;;;4911283;28;20201;-64
2023/11/05 02:40:43;;;;;;;1.80;0.90;;;9.30;99.90;;;;;;4910949;28;20581;-64
2023/11/05 02:43:09;;;;;;;6.60;1.00;;;9.30;99.90;;;;;;4910914;28;20254;-64
2023/11/05 02:45:34;;;;;;;7.17;1.00;;;9.30;99.90;;;;;;4910615;28;20207;-64
2023/11/05 02:48:00;;;;;;;1.57;0.63;;;9.30;99.90;;;;;;4911156;28;20187;-65
2023/11/05 02:50:26;;;;;;;5.83;0.73;;;9.30;99.90;;;;;;4910852;28;20227;-65
2023/11/05 02:52:51;;;;;;;1.43;0.70;;;9.30;99.90;;;;;;4909943;28;20180;-64
2023/11/05 02:55:17;;;;;;;2.83;0.90;;;9.20;99.90;;;;;;4910456;28;20613;-64
2023/11/05 02:57:42;;;;;;;3.40;0.63;;;9.30;99.90;;;;;;4910950;28;20196;-63
2023/11/05 03:00:13;;;;;;;2.57;0.80;;;9.20;99.90;;;;;;4903237;28;20864;-64
2023/11/05 03:02:39;;;;;;;3.73;0.90;;;9.20;99.90;;;;;;4903086;28;20192;-64
2023/11/05 03:05:05;;;;;;;2.23;0.87;;;9.20;99.90;;;;;;4910177;28;20212;-64
2023/11/05 03:07:31;;;;;;;1.87;0.80;;;9.20;99.90;;;;;;4910970;28;20218;-64
2023/11/05 03:09:59;;;;;;;2.27;0.63;;;9.20;99.90;;;;;;4910801;28;20290;-64
2023/11/05 03:12:25;;;;;;;4.27;0.80;;;9.20;99.90;;;;;;4910475;28;20275;-64
2023/11/05 03:14:50;;;;;;;1.60;0.70;;;9.20;99.90;;;;;;4910078;28;20270;-64
2023/11/05 03:17:16;;;;;;;3.80;0.70;;;9.20;99.90;;;;;;4910861;28;20299;-63
2023/11/05 03:19:42;;;;;;;4.83;0.63;;;9.20;99.90;;;;;;4910706;28;20212;-63
2023/11/05 03:22:08;;;;;;;1.53;0.50;;;9.30;99.90;;;;;;4910646;28;20661;-63
2023/11/05 03:24:33;;;;;;;2.93;0.83;;;9.30;99.90;;;;;;4910047;28;20216;-64
2023/11/05 03:26:59;;;;;;;1.70;1.00;;;9.30;99.90;;;;;;4910534;28;20195;-64
2023/11/05 03:29:24;;;;;;;1.40;0.70;;;9.30;99.90;;;;;;4910461;28;20572;-63
2023/11/05 03:31:51;;;;;;;3.23;0.60;;;9.40;99.90;;;;;;4910291;28;20188;-63
2023/11/05 03:34:18;;;;;;;1.23;0.60;;;9.30;99.90;;;;;;4910111;28;20255;-64
2023/11/05 03:36:44;;;;;;;2.57;0.80;;;9.40;99.90;;;;;;4910351;28;20196;-63
2023/11/05 03:39:09;;;;;;;1.30;0.53;;;9.30;99.90;;;;;;4911766;28;20705;-63
2023/11/05 03:41:35;;;;;;;3.33;0.53;;;9.40;99.90;;;;;;4913530;28;20192;-64
2023/11/05 03:44:01;;;;;;;1.77;0.53;;;9.40;99.90;;;;;;4912946;28;20187;-64
2023/11/05 03:46:26;;;;;;;0.80;0.50;;;9.40;99.90;;;;;;4913859;28;20187;-64
2023/11/05 03:48:52;;;;;;;3.90;0.60;;;9.30;99.90;;;;;;4913332;28;20208;-64
2023/11/05 03:51:17;;;;;;;2.03;0.70;;;9.40;99.90;;;;;;4913421;28;20268;-64
2023/11/05 03:53:44;;;;;;;3.57;0.60;;;9.40;99.90;;;;;;4905270;28;20188;-64
2023/11/05 03:56:10;;;;;;;2.00;0.70;;;9.40;99.90;;;;;;4905785;28;20679;-63
2023/11/05 03:58:39;;;;;;;7.00;1.17;;;9.40;99.90;;;;;;4913486;28;20745;-64
2023/11/05 04:01:07;;;;;;;1.83;0.80;;;9.40;99.90;;;;;;4905680;28;20216;-64
2023/11/05 04:03:32;;;;;;;1.13;0.60;;;9.50;99.90;;;;;;4905306;28;20238;-63
2023/11/05 04:05:58;;;;;;;4.03;0.87;;;9.40;99.90;;;;;;4913074;28;20216;-64
2023/11/05 04:08:24;;;;;;;3.90;0.93;;;9.40;99.90;;;;;;4913504;28;20184;-64
2023/11/05 04:10:49;;;;;;;5.20;0.90;;;9.40;99.90;;;;;;4912860;28;20693;-64
2023/11/05 04:13:15;;;;;;;5.63;0.90;;;9.40;99.90;;;;;;4913132;28;20198;-64
2023/11/05 04:15:41;;;;;;;2.97;0.80;;;9.40;99.90;;;;;;4912297;28;20196;-63
2023/11/05 04:18:07;;;;;;;2.70;0.80;;;9.40;99.90;;;;;;4913522;28;20184;-63
2023/11/05 04:20:32;;;;;;;2.77;0.90;;;9.40;99.90;;;;;;4912938;28;20211;-63
2023/11/05 04:22:58;;;;;;;4.40;0.60;;;9.40;99.90;;;;;;4913064;28;20575;-64
2023/11/05 04:25:23;;;;;;;0.90;0.50;;;9.40;99.90;;;;;;4912352;28;20577;-63
2023/11/05 04:27:49;;;;;;;2.60;0.80;;;9.40;99.90;;;;;;4912890;28;20567;-64
2023/11/05 04:30:15;;;;;;;2.13;0.60;;;9.40;99.90;;;;;;4912893;28;20212;-63
2023/11/05 04:32:42;;;;;;;1.63;0.70;;;9.40;99.90;;;;;;4912784;28;20219;-63
2023/11/05 04:35:08;;;;;;;3.60;0.70;;;9.40;99.90;;;;;;4908957;28;20189;-64
2023/11/05 04:37:33;;;;;;;1.53;0.63;;;9.40;99.90;;;;;;4908952;28;20249;-63
2023/11/05 04:40:01;;;;;;;6.80;0.90;;;9.40;99.90;;;;;;4912755;28;20219;-64
2023/11/05 04:42:28;;;;;;;3.63;0.70;;;9.40;99.90;;;;;;4912490;28;20481;-64
2023/11/05 04:44:53;;;;;;;1.20;0.60;;;9.40;99.90;;;;;;4912235;28;20226;-63
2023/11/05 04:47:19;;;;;;;1.27;0.73;;;9.50;99.90;;;;;;4912536;28;20180;-64
2023/11/05 04:49:44;;;;;;;2.67;0.83;;;9.50;99.90;;;;;;4911632;28;20251;-64
2023/11/05 04:52:10;;;;;;;4.80;0.73;;;9.40;99.90;;;;;;4905084;28;20459;-63
2023/11/05 04:54:39;;;;;;;2.73;0.60;;;9.40;99.90;;;;;;4912152;28;20188;-64
2023/11/05 04:57:05;;;;;;;1.70;0.50;;;9.40;99.90;;;;;;4912476;28;20184;-63
2023/11/05 04:59:33;;;;;;;4.67;0.80;;;9.50;99.90;;;;;;4912788;28;20612;-64
2023/11/05 05:01:59;;;;;;;3.03;1.17;;;9.50;99.90;;;;;;4912519;28;20198;-64
2023/11/05 05:04:24;;;;;;;7.50;1.10;;;9.50;99.90;;;;;;4911924;28;20212;-64
2023/11/05 05:06:51;;;;;;;3.40;0.53;;;9.50;99.90;;;;;;4912207;28;20188;-64
2023/11/05 05:09:17;;;;;;;6.03;1.20;;;9.50;99.90;;;;;;4912496;28;20207;-64
2023/11/05 05:11:43;;;;;;;5.00;0.60;;;9.50;99.90;;;;;;4912289;28;20661;-64
2023/11/05 05:14:09;;;;;;;5.70;1.50;;;9.50;99.90;;;;;;4911813;28;20191;-63
2023/11/05 05:16:35;;;;;;;2.23;0.67;;;9.50;99.90;;;;;;4912371;28;20629;-64
2023/11/05 05:19:00;;;;;;;9.27;1.03;;;9.40;99.90;;;;;;4904747;28;20180;-63
2023/11/05 05:21:26;;;;;;;2.80;0.93;;;9.40;99.90;;;;;;4912309;28;20179;-64
2023/11/05 05:23:51;;;;;;;4.87;1.00;;;9.40;99.90;;;;;;4909920;28;20274;-63
2023/11/05 05:26:17;;;;;;;2.87;0.70;;;9.40;99.90;;;;;;4906354;28;20214;-63
2023/11/05 05:28:43;;;;;;;3.47;1.10;;;9.40;99.90;;;;;;4911895;28;20203;-63
2023/11/05 05:31:09;;;;;;;7.43;1.13;;;9.40;99.90;;;;;;4912140;28;20184;-63
2023/11/05 05:33:34;;;;;;;3.53;1.00;;;9.40;99.90;;;;;;4911655;28;20185;-64
2023/11/05 05:36:00;;;;;;;11.63;2.40;;;9.40;99.90;;;;;;4911627;28;20199;-64
2023/11/05 05:38:25;;;;;;;3.33;1.00;;;9.40;99.90;;;;;;4912123;28;20198;-64
2023/11/05 05:40:51;;;;;;;6.27;1.63;;;9.40;99.90;;;;;;4944594;28;20219;-64
2023/11/05 05:43:17;;;;;;;5.07;0.90;;;9.40;99.90;;;;;;4912108;28;20199;-63
2023/11/05 05:45:42;;;;;;;4.17;0.93;;;9.40;99.90;;;;;;4911065;28;20768;-63
2023/11/05 05:48:08;;;;;;;7.73;0.70;;;9.40;99.90;;;;;;4912008;28;20186;-64
2023/11/05 05:50:33;;;;;;;5.23;1.03;;;9.40;99.90;;;;;;4911858;28;20208;-63
2023/11/05 05:52:59;;;;;;;3.47;0.60;;;9.30;99.90;;;;;;4911854;28;20199;-64
2023/11/05 05:55:24;;;;;;;1.97;0.90;;;9.30;99.90;;;;;;4911189;28;20184;-63
2023/11/05 05:57:50;;;;;;;8.10;1.80;;;9.30;99.90;;;;;;4911750;28;20307;-63
2023/11/05 06:00:16;;;;;;;4.70;0.80;;;9.30;99.90;;;;;;4911681;28;20215;-63
2023/11/05 06:02:41;;;;;;;1.60;0.70;;;9.40;99.90;;;;;;4911545;28;20196;-63
2023/11/05 06:05:10;;;;;;;3.53;1.60;;;9.40;99.90;;;;;;4910898;28;20203;-63
2023/11/05 06:07:36;;;;;;;6.17;1.17;;;9.40;99.90;;;;;;4903942;28;20183;-64
2023/11/05 06:10:02;;;;;;;2.80;0.50;;;9.40;99.90;;;;;;4911346;28;20283;-64
2023/11/05 06:12:28;;;;;;;3.07;0.50;;;9.40;99.90;;;;;;4911677;28;20563;-64
2023/11/05 06:14:54;;;;;;;1.90;0.50;;;9.50;99.90;;;;;;4910768;28;20196;-63
2023/11/05 06:17:19;;;;;;;2.83;0.90;;;9.50;99.90;;;;;;4911457;28;20195;-64
2023/11/05 06:19:45;;;;;;;3.03;0.80;;;9.40;99.90;;;;;;4911294;28;20258;-63
2023/11/05 06:22:11;;;;;;;1.37;0.60;;;9.50;99.90;;;;;;4911288;28;20215;-63
2023/11/05 06:24:39;;;;;;;2.73;0.77;;;9.50;99.90;;;;;;4910883;28;20708;-63
2023/11/05 06:27:04;;;;;;;3.77;0.90;;;9.50;99.90;;;;;;4911118;28;20233;-64
2023/11/05 06:29:30;;;;;;;6.67;2.20;;;9.50;99.90;;;;;;4911545;28;20219;-64
2023/11/05 06:31:56;;;;;;;8.20;1.40;;;9.50;99.90;;;;;;4911088;28;20283;-63
2023/11/05 06:34:21;;;;;;;3.67;0.97;;;9.50;99.90;;;;;;4910472;28;20219;-63
2023/11/05 06:37:01;;;;;;;6.10;1.67;;;9.50;99.90;;;;;;4911021;28;20203;-63
2023/11/05 06:39:27;;;;;;;3.90;1.13;;;9.40;99.90;;;;;;4911094;28;20459;-64
2023/11/05 06:41:53;;;;;;;6.00;0.80;;;9.40;99.90;;;;;;4911091;28;20572;-64
2023/11/05 06:44:19;;;;;;;6.90;0.93;;;9.40;99.90;;;;;;4910449;28;20531;-64
2023/11/05 06:46:44;;;;;;;2.37;0.97;;;9.40;99.90;;;;;;4910997;28;20192;-63
2023/11/05 06:49:10;;;;;;;2.00;0.80;;;9.40;99.90;;;;;;4911080;28;20219;-64
2023/11/05 06:51:35;;;;;;;5.93;1.20;;;9.50;99.90;;;;;;4911618;28;20259;-63
2023/11/05 06:54:01;;;;;;;22.90;8.97;;;9.40;99.90;;;;;;4910170;28;20191;-64
2023/11/05 06:56:27;;;;;;;2.47;1.03;;;9.50;99.90;;;;;;4911045;28;20184;-63
2023/11/05 06:58:52;;;;;;;2.77;0.93;;;9.50;99.90;;;;;;4910328;28;20235;-64
2023/11/05 07:01:18;;;;;;;2.63;0.90;;;9.50;99.90;;;;;;4910266;28;20188;-63
2023/11/05 07:03:44;;;;;;;0.97;0.60;;;9.50;99.90;;;;;;4909687;28;20640;-63
2023/11/05 07:06:13;;;;;;;5.17;3.13;;;9.50;99.90;;;;;;4910314;28;20239;-64
2023/11/05 07:08:39;;;;;;;8.17;3.10;;;9.50;99.90;;;;;;4910706;28;20248;-63
2023/11/05 07:11:06;;;;;;;8.77;1.90;;;9.60;99.90;;;;;;4910226;28;20550;-63
2023/11/05 07:13:32;;;;;;;3.20;1.73;;;9.60;99.90;;;;;;4909967;28;20264;-63
2023/11/05 07:15:58;;;;;;;2.70;1.23;;;9.60;99.90;;;;;;4914172;28;20211;-64
2023/11/05 07:18:23;;;;;;;15.67;10.63;;;9.70;99.90;;;;;;4913894;28;20323;-63
2023/11/05 07:20:49;;;;;;;3.37;1.80;;;9.70;99.90;;;;;;4905612;28;20235;-64
2023/11/05 07:23:15;;;;;;;6.40;1.57;;;9.70;99.90;;;;;;4913681;28;20234;-63
2023/11/05 07:25:40;;;;;;;2.23;1.37;;;9.70;99.90;;;;;;4904294;28;20211;-63
2023/11/05 07:28:06;;;;;;;2.13;1.23;;;9.70;99.90;;;;;;4913426;28;20632;-63
2023/11/05 07:30:31;;;;;;;5.10;3.13;;;9.70;99.90;;;;;;4913412;28;20211;-64
2023/11/05 07:32:57;;;;;;;4.63;0.70;;;9.70;99.90;;;;;;4913246;28;20689;-64
2023/11/05 07:35:23;;;;;;;2.93;0.60;;;9.80;99.90;;;;;;4905477;28;20195;-64
2023/11/05 07:37:49;;;;;;;2.83;1.17;;;9.70;99.90;;;;;;4913377;28;20187;-64
2023/11/05 07:40:15;;;;;;;2.87;1.10;;;9.70;99.90;;;;;;4913150;28;20854;-64
2023/11/05 07:42:41;;;;;;;2.93;0.60;;;9.80;99.90;;;;;;4913479;28;20199;-63
2023/11/05 07:45:07;;;;;;;2.40;0.43;;;9.70;99.90;;;;;;4913044;28;20235;-64
2023/11/05 07:47:33;;;;;;;2.70;0.40;;;9.70;99.90;;;;;;4913656;28;20319;-65
2023/11/05 07:49:58;;;;;;;2.73;0.40;;;9.70;99.90;;;;;;4912954;28;20339;-65
2023/11/05 07:52:24;;;;;;;0.97;0.70;;;9.60;99.90;;;;;;4913376;28;20764;-65
2023/11/05 07:54:49;;;;;;;1.03;0.40;;;9.70;99.90;;;;;;4913090;28;20196;-65
2023/11/05 07:57:15;;;;;;;2.87;0.37;;;9.70;99.90;;;;;;4913057;28;20249;-65
2023/11/05 07:59:40;;;;;;;1.80;0.53;;;9.70;99.90;;;;;;4913342;28;20294;-64
2023/11/05 08:02:06;;;;;;;2.23;0.60;;;9.80;99.90;;;;;;4913023;28;20246;-64
2023/11/05 08:04:31;;;;;;;1.97;0.47;;;9.90;99.90;;;;;;4912745;28;20219;-65
2023/11/05 08:06:57;;;;;;;1.23;0.40;;;9.80;99.90;;;;;;4911558;28;20199;-65
2023/11/05 08:09:23;;;;;;;2.00;0.50;;;9.90;99.90;;;;;;4907571;28;20215;-65
2023/11/05 08:11:53;;;;;;;4.00;0.80;;;10.00;99.90;;;;;;4910673;28;20203;-65
2023/11/05 08:14:19;;;;;;;1.67;0.40;;;10.10;99.90;;;;;;4912757;28;20274;-66
2023/11/05 08:16:45;;;;;;;0.80;0.40;;;10.10;99.90;;;;;;4912865;28;20291;-65
2023/11/05 08:19:10;;;;;;;2.63;0.80;;;10.10;99.90;;;;;;4913189;28;20207;-65
2023/11/05 08:21:36;;;;;;;1.07;0.50;;;10.10;99.90;;;;;;4913107;28;20187;-65
2023/11/05 08:24:02;;;;;;;2.03;0.90;;;10.10;99.90;;;;;;4912421;28;20196;-64
2023/11/05 08:26:28;;;;;;;2.43;0.60;;;10.10;99.90;;;;;;4911370;28;20648;-65
2023/11/05 08:28:54;;;;;;;2.17;0.70;;;10.10;99.90;;;;;;4904711;28;20193;-65
2023/11/05 08:31:19;;;;;;;4.73;2.13;;;10.20;99.90;;;;;;4912646;28;20192;-65
2023/11/05 08:33:45;;;;;;;3.87;2.10;;;10.20;99.90;;;;;;4912415;28;20628;-65
2023/11/05 08:36:10;;;;;;;3.33;1.43;;;10.20;99.90;;;;;;4912900;28;20242;-64
2023/11/05 08:38:37;;;;;;;2.70;0.80;;;10.20;99.90;;;;;;4912567;28;20199;-64
2023/11/05 08:41:04;;;;;;;1.67;0.60;;;10.30;99.90;;;;;;4912474;28;20246;-64
2023/11/05 08:43:29;;;;;;;2.07;0.70;;;10.40;99.90;;;;;;4906070;28;20192;-65
2023/11/05 08:45:55;;;;;;;1.03;0.47;;;10.50;99.90;;;;;;4910660;28;20743;-64
2023/11/05 08:48:21;;;;;;;1.80;0.40;;;10.60;99.90;;;;;;4912208;28;20235;-65
2023/11/05 08:50:46;;;;;;;2.13;0.60;;;10.60;99.90;;;;;;4912464;28;20212;-65
2023/11/05 08:53:12;;;;;;;6.47;0.80;;;10.60;99.90;;;;;;4912097;28;20342;-65
2023/11/05 08:55:37;;;;;;;2.13;0.30;;;10.70;99.90;;;;;;4912443;28;20191;-64
2023/11/05 08:58:03;;;;;;;3.40;0.80;;;10.60;99.90;;;;;;4912406;28;20195;-64
2023/11/05 09:00:32;;;;;;;2.47;1.20;;;10.60;99.90;;;;;;4912654;28;20203;-64
2023/11/05 09:02:59;;;;;;;0.50;0.40;;;10.60;99.90;;;;;;4912267;28;20774;-64
2023/11/05 09:05:25;;;;;;;2.07;1.10;;;10.60;99.90;;;;;;4911899;28;20215;-65
2023/11/05 09:07:57;;;;;;;0.83;0.40;;;10.70;99.90;;;;;;4912213;28;20200;-64
2023/11/05 09:10:26;;;;;;;2.40;0.70;;;10.70;99.90;;;;;;4912082;28;20303;-65
2023/11/05 09:12:53;;;;;;;0.97;0.60;;;10.70;99.90;;;;;;4912032;28;20183;-65
2023/11/05 09:15:20;;;;;;;1.60;0.60;;;10.90;99.90;;;;;;4911800;28;20184;-65
2023/11/05 09:17:45;;;;;;;3.17;0.90;;;10.80;99.90;;;;;;4904430;28;20291;-65
2023/11/05 09:20:11;;;;;;;3.90;0.40;;;10.70;99.90;;;;;;4910827;28;20299;-65
2023/11/05 09:22:41;;;;;;;1.40;0.43;;;10.70;99.90;;;;;;4936804;28;20200;-65
2023/11/05 09:25:07;;;;;;;2.70;0.30;;;10.70;99.90;;;;;;4984302;28;20226;-65
2023/11/05 09:27:33;;;;;;;0.40;0.30;;;10.60;99.90;;;;;;4910439;28;20202;-64
2023/11/05 09:29:59;;;;;;;0.40;0.30;;;10.50;99.90;;;;;;4911856;28;20239;-64
2023/11/05 09:32:25;;;;;;;0.47;0.33;;;10.50;99.90;;;;;;4911845;28;20222;-65
2023/11/05 09:34:52;;;;;;;2.90;0.40;;;10.60;99.90;;;;;;4911397;28;20223;-64
2023/11/05 09:37:17;;;;;;;1.40;0.50;;;10.60;99.90;;;;;;4911358;28;20240;-64
2023/11/05 09:39:44;;;;;;;1.07;0.60;;;10.60;99.90;;;;;;4911579;28;20223;-64
2023/11/05 09:42:15;;;;;;;0.50;0.27;;;10.50;99.90;;;;;;4911567;28;20219;-64
2023/11/05 09:44:41;;;;;;;1.20;0.40;;;10.50;99.90;;;;;;4911286;28;20226;-64
2023/11/05 09:47:09;;;;;;;1.53;0.50;;;10.60;99.90;;;;;;4911466;28;20196;-66
2023/11/05 09:49:37;;;;;;;5.50;0.53;;;10.70;99.90;;;;;;4911316;28;20223;-66
2023/11/05 09:52:03;;;;;;;2.23;0.30;;;10.80;99.90;;;;;;4911409;28;20186;-66
2023/11/05 09:54:29;;;;;;;0.30;0.23;;;10.70;99.90;;;;;;4910036;28;20176;-66
2023/11/05 09:56:55;;;;;;;1.57;0.40;;;10.70;99.90;;;;;;4911340;28;20237;-65
2023/11/05 09:59:22;;;;;;;1.60;0.43;;;10.80;99.90;;;;;;4911233;28;20212;-65
2023/11/05 10:01:54;;;;;;;3.30;0.60;;;11.00;99.90;;;;;;4911447;28;20192;-65
2023/11/05 10:04:20;;;;;;;0.53;0.40;;;11.10;99.90;;;;;;4910611;28;20214;-65
2023/11/05 10:06:47;;;;;;;1.93;0.70;;;11.10;99.90;;;;;;4911377;28;20196;-65
2023/11/05 10:09:13;;;;;;;0.80;0.50;;;11.10;99.90;;;;;;4911369;28;20338;-65
2023/11/05 10:11:43;;;;;;;3.73;0.43;;;11.20;99.90;;;;;;4911349;28;20283;-65
2023/11/05 10:14:11;;;;;;;2.33;0.37;;;11.20;99.90;;;;;;4903159;28;20674;-65
2023/11/05 10:16:37;;;;;;;3.40;0.47;;;11.30;99.90;;;;;;4911340;28;20346;-65
2023/11/05 10:19:03;;;;;;;0.57;0.30;;;11.40;99.90;;;;;;4911154;28;20279;-65
2023/11/05 10:21:36;;;;;;;0.70;0.40;;;11.40;99.90;;;;;;4911171;28;20354;-65
2023/11/05 10:24:02;;;;;;;0.30;0.20;;;11.60;99.90;;;;;;4910859;28;20199;-64
2023/11/05 10:26:33;;;;;;;0.53;0.30;;;11.80;99.90;;;;;;4911128;28;20216;-64
2023/11/05 10:29:00;;;;;;;1.17;0.20;;;12.00;99.90;;;;;;4894171;28;20324;-67
2023/11/05 10:31:26;;;;;;;0.53;0.40;;;12.10;99.90;;;;;;4911077;28;20187;-64
2023/11/05 10:33:53;;;;;;;0.20;0.20;;;12.20;99.90;;;;;;4910623;28;20661;-65
2023/11/05 10:36:25;;;;;;;1.33;0.50;;;12.30;99.90;;;;;;4911049;28;20184;-65
2023/11/05 10:38:51;;;;;;;0.70;0.20;;;12.10;99.90;;;;;;4910769;28;20188;-65
2023/11/05 10:41:17;;;;;;;1.20;0.40;;;12.10;99.90;;;;;;4910982;28;20707;-65
2023/11/05 10:43:48;;;;;;;1.40;0.30;;;12.20;99.90;;;;;;4910607;28;20234;-65
2023/11/05 10:46:19;;;;;;;0.53;0.20;;;12.30;99.90;;;;;;4910840;28;20306;-66
2023/11/05 10:48:48;;;;;;;1.07;0.40;;;12.20;99.90;;;;;;4911135;28;20294;-65
2023/11/05 10:51:16;;;;;;;0.30;0.20;;;12.20;99.90;;;;;;4914204;28;20224;-65
2023/11/05 10:53:43;;;;;;;0.37;0.20;;;12.20;99.90;;;;;;4913846;28;20269;-64
2023/11/05 10:56:41;;;;;;;1.13;0.37;;;12.00;99.90;;;;;;4914139;28;20188;-64
2023/11/05 10:59:07;;;;;;;1.20;0.30;;;12.00;99.90;;;;;;4919685;28;20630;-65
2023/11/05 11:01:35;;;;;;;0.73;0.50;;;11.90;99.90;;;;;;4914076;28;20288;-65
2023/11/05 11:04:17;;;;;;;0.20;0.20;;;12.00;99.90;;;;;;4913459;28;20661;-64
2023/11/05 11:06:44;;;;;;;0.50;0.30;;;11.90;99.90;;;;;;4913926;28;20196;-65
2023/11/05 11:09:19;;;;;;;0.77;0.30;;;12.20;99.90;;;;;;4914072;28;20223;-64
2023/11/05 11:11:45;;;;;;;0.70;0.20;;;12.40;99.90;;;;;;4913734;28;20188;-65
2023/11/05 11:14:11;;;;;;;1.13;0.30;;;12.60;99.90;;;;;;4912736;28;20172;-64
2023/11/05 11:16:40;;;;;;;2.17;0.60;;;12.90;99.90;;;;;;4913957;28;20271;-65
2023/11/05 11:19:12;;;;;;;0.77;0.47;;;13.10;99.90;;;;;;4913661;28;20219;-65
2023/11/05 11:21:58;;;;;;;0.30;0.20;;;13.20;99.90;;;;;;4913853;28;20196;-65
2023/11/05 11:24:37;;;;;;;2.83;0.50;;;13.30;99.90;;;;;;4929068;28;20211;-64
2023/11/05 11:27:07;;;;;;;0.70;0.30;;;13.30;99.90;;;;;;4913221;28;20268;-65
2023/11/05 11:29:37;;;;;;;0.77;0.30;;;13.20;99.90;;;;;;4912378;28;20230;-65
2023/11/05 11:32:03;;;;;;;1.13;0.63;;;13.20;99.90;;;;;;4911921;28;20270;-65
2023/11/05 11:34:32;;;;;;;2.50;0.40;;;13.40;99.90;;;;;;4912858;28;20713;-65
2023/11/05 11:37:05;;;;;;;1.73;0.50;;;13.40;99.90;;;;;;4913416;28;20188;-65
2023/11/05 11:39:31;;;;;;;2.00;0.50;;;13.50;99.90;;;;;;4913421;28;20579;-65
2023/11/05 11:41:57;;;;;;;0.90;0.20;;;13.60;99.90;;;;;;4927712;28;20188;-65
2023/11/05 11:44:24;;;;;;;1.63;0.30;;;13.50;99.90;;;;;;4913054;28;20287;-65
2023/11/05 11:46:50;;;;;;;3.13;0.80;;;13.40;99.90;;;;;;4913278;28;20187;-65
2023/11/05 11:49:16;;;;;;;1.27;0.77;;;13.40;99.90;;;;;;4913163;28;20589;-65
2023/11/05 11:51:42;;;;;;;1.80;1.00;;;13.40;99.90;;;;;;4913257;28;20234;-65
2023/11/05 11:54:11;;;;;;;1.87;0.57;;;13.40;99.90;;;;;;4912878;28;20211;-65
2023/11/05 11:56:40;;;;;;;2.07;0.80;;;13.30;99.90;;;;;;4913232;28;20694;-65
2023/11/05 11:59:07;;;;;;;1.47;0.60;;;13.20;99.90;;;;;;4913123;28;20306;-65
2023/11/05 12:01:34;;;;;;;0.70;0.40;;;13.20;99.90;;;;;;4912995;28;20294;-64
2023/11/05 12:04:00;;;;;;;1.47;0.70;;;13.20;99.90;;;;;;4912711;28;20250;-65
2023/11/05 12:06:27;;;;;;;2.40;0.87;;;13.30;99.90;;;;;;4912892;28;20216;-65
2023/11/05 12:08:54;;;;;;;0.50;0.40;;;13.10;99.90;;;;;;4912962;28;20194;-65
2023/11/05 12:11:20;;;;;;;1.93;0.80;;;12.90;99.90;;;;;;4913004;28;20192;-65
2023/11/05 12:13:46;;;;;;;2.20;0.53;;;12.70;99.90;;;;;;4912771;28;20236;-65
2023/11/05 12:16:14;;;;;;;1.50;0.60;;;12.60;99.90;;;;;;4912549;28;20188;-64
2023/11/05 12:18:41;;;;;;;1.63;0.60;;;12.40;99.90;;;;;;4912538;28;20222;-65
2023/11/05 12:21:11;;;;;;;1.77;0.90;;;12.30;99.90;;;;;;4912779;28;20273;-65
2023/11/05 12:23:38;;;;;;;0.60;0.33;;;12.40;99.90;;;;;;4912521;28;20249;-66
2023/11/05 12:26:05;;;;;;;0.90;0.50;;;12.70;99.90;;;;;;4912731;28;20246;-66
2023/11/05 12:28:32;;;;;;;2.17;0.60;;;13.10;99.90;;;;;;4912840;28;20599;-66
2023/11/05 12:30:58;;;;;;;1.63;0.60;;;13.50;99.90;;;;;;4912134;28;20291;-66
2023/11/05 12:33:24;;;;;;;1.23;0.50;;;13.60;99.90;;;;;;4912385;28;20342;-66
2023/11/05 12:35:51;;;;;;;0.73;0.50;;;13.40;99.90;;;;;;4912126;28;20215;-66
2023/11/05 12:38:17;;;;;;;1.97;0.57;;;13.30;99.90;;;;;;4912240;28;20687;-65
2023/11/05 12:40:43;;;;;;;1.43;0.70;;;13.00;99.90;;;;;;4912417;28;20747;-66
2023/11/05 12:43:09;;;;;;;1.80;0.50;;;12.80;99.90;;;;;;4912339;28;20192;-65
2023/11/05 12:45:34;;;;;;;2.50;0.40;;;12.60;99.90;;;;;;4912166;28;20216;-65
2023/11/05 12:48:00;;;;;;;2.73;0.47;;;12.60;99.90;;;;;;4912378;28;20192;-66
2023/11/05 12:50:26;;;;;;;2.27;0.47;;;12.60;99.90;;;;;;4911979;28;20343;-65